< Typhoon 200119 2001 Season Typhoon 200121 >
Typhoon 200120 (KROSA)
General InformationTrack Information on Google MapsDetailed Wind InformationList of All Images || Disaster Info.ResourceGoogle EarthGE AnimationAtom FeedGeoJSON
Detalied Best Track (Time Zone = UTC)
Year Month Day Hour Lat. Long. Pressure (hPa) Wind (kt) Class Image Chart
2001 10 3 12 14.3 146.6 1004 0 2 Image Chart
2001 10 3 18 14.8 144.9 1004 0 2 Image Chart
2001 10 4 00 15.1 143.8 1000 0 2 Image Chart
2001 10 4 06 15.8 142.5 996 35 3 Image Chart
2001 10 4 12 16.6 141.5 990 45 3 Image Chart
2001 10 4 18 17.4 140.3 985 50 4 Image Chart
2001 10 5 00 17.9 139.3 980 55 4 Image Chart
2001 10 5 06 18.8 138.3 970 65 5 Image Chart
2001 10 5 12 19.7 137.2 960 70 5 Image Chart
2001 10 5 18 20.8 136.4 960 70 5 Image Chart
2001 10 6 00 21.4 135.8 955 75 5 Image Chart
2001 10 6 06 22.4 135.1 955 75 5 Image Chart
2001 10 6 12 23.4 135.3 950 80 5 Image Chart
2001 10 6 18 24.0 135.5 950 80 5 Image Chart
2001 10 7 00 24.8 135.8 950 80 5 Image Chart
2001 10 7 06 25.6 136.7 950 80 5 Image Chart
2001 10 7 12 26.3 137.6 955 75 5 Image Chart
2001 10 7 18 27.0 138.5 955 75 5 Image Chart
2001 10 8 00 28.0 139.7 960 70 5 Image Chart
2001 10 8 06 28.9 140.7 960 70 5 Image Chart
2001 10 8 12 29.8 142.5 965 65 5 Image Chart
2001 10 8 18 31.1 145.0 975 60 4 Image Chart
2001 10 9 00 32.5 147.8 985 50 4 Image Chart
2001 10 9 06 34.3 151.5 988 0 6 Image Chart
2001 10 9 12 35.5 156.5 992 0 6 Image Chart
2001 10 9 18 37.0 162.1 992 0 6 Image Chart
2001 10 10 00 38.1 169.1 992 0 6 Image Chart
2001 10 10 06 41.0 174.9 982 0 6 Image Chart
2001 10 10 12 43.0 178.9 972 0 6 Image Chart
2001 10 10 18 44.4 182.2 968 0 6 Image Chart
Japan Meteorological Agency Best Track Data | Correction Date : 2002-01-24
< Typhoon 200119 2001 Season Typhoon 200121 >

Help